CGS Airport (College Park) Information

FAA: CGS - ICAO: KCGS

CGS Airport Location

State Maryland
County Prince Georges
City College Park
CGS Airport is 1 mile east of College Park, MD.
Latitude 38-58-50.1000N
Longitude 076-55-20.3000W
Elevation 48ft

KCGS Airport METARs

METAR KCGS 080715Z AUTO 00000KT 10SM SCT120 00/M06 A3013 RMK AO1 T00001059
Altimeter 30.13"
Temperature 0.0°C (32.0°F)
Wind 0° at 0KT
Clouds scattered at 12,000ft
Visibility 10.0mi
Time observed: 2021-12-08T07:15:00Z

CGS Airport Details

Status Operational
Activation April 1940
Ownership Public
Usage Public
Chart WASHINGTON
ATC on-site No
Beacon schedule sunset-sunrise
Beacon color clear green

CGS Airport Contacts

Owner MNCPPC
Owner address 6611 KENILWORTH AVENUE, RIVERDALE, MD 20737
Owner phone 301-699-2255
Manager FREDERICK T. LOHR
Manager address 9860 BREEZECROFT LN., CHESTERTOWN, MD 21620
Manager phone 410-778-1226

CGS Airport (College Park) Radio Frequencies

CGS (Airport) Radio Frequencies

UNICOM 122.975
Common traffic advisory frequency (CTAF) 122.975